Aviation Digital Data Service (ADDS)

Output produced by METARs form (1418 UTC 16 August 2022)
found at http://aviationweather.gov/metar/data/
 
METAR text: KDAB 161353Z VRB04KT 10SM FEW250 30/22 A2992 RMK AO2 SLP131 T03000222
Conditions at: KDAB (DAYTONA BEACH , FL, US) observed 1353 UTC 16 August 2022
Temperature: 30.0°C (86°F)
Dewpoint: 22.2°C (72°F) [RH = 63%]
Pressure (altimeter): 29.92 inches Hg (1013.3 mb)
[Sea-level pressure: 1013.1 mb]
Winds: variable direction winds at 5 MPH (4 knots; 2.1 m/s)
Visibility: 10 or more miles (16+ km)
Ceiling: at least 12,000 feet AGL
Clouds: few clouds at 25000 feet AGL
Weather: no significant weather observed at this time

METAR text: KDAB 161253Z 25005KT 10SM FEW250 27/24 A2992 RMK AO2 SLP132 T02720239
Conditions at: KDAB (DAYTONA BEACH , FL, US) observed 1253 UTC 16 August 2022
Temperature: 27.2°C (81°F)
Dewpoint: 23.9°C (75°F) [RH = 82%]
Pressure (altimeter): 29.92 inches Hg (1013.3 mb)
[Sea-level pressure: 1013.2 mb]
Winds: from the WSW (250 degrees) at 6 MPH (5 knots; 2.6 m/s)
Visibility: 10 or more miles (16+ km)
Ceiling: at least 12,000 feet AGL
Clouds: few clouds at 25000 feet AGL
Weather: no significant weather observed at this time

Forecast for: KDAB (DAYTONA BEACH , FL, US)
Text: KDAB 161122Z 1612/1712 VRB03KT P6SM FEW250
Forecast period: 1200 to 1400 UTC 16 August 2022
Forecast type: FROM: standard forecast or significant change
Winds: variable direction winds at 3 MPH (3 knots; 1.5 m/s)
Visibility: 6 or more miles (10+ km)
Ceiling: at least 12,000 feet AGL
Clouds: few clouds at 25000 feet AGL
Weather: no significant weather forecast for this period
Text: FM161400 24005KT P6SM FEW030 FEW250
Forecast period: 1400 to 2100 UTC 16 August 2022
Forecast type: FROM: standard forecast or significant change
Winds: from the WSW (240 degrees) at 6 MPH (5 knots; 2.6 m/s)
Visibility: 6 or more miles (10+ km)
Ceiling: at least 12,000 feet AGL
Clouds: few clouds at 3000 feet AGL
few clouds at 25000 feet AGL
Weather: no significant weather forecast for this period
Text: FM162100 15008KT P6SM VCTS SCT040CB SCT250
Forecast period: 2100 UTC 16 August 2022 to 0300 UTC 17 August 2022
Forecast type: FROM: standard forecast or significant change
Winds: from the SSE (150 degrees) at 9 MPH (8 knots; 4.1 m/s)
Visibility: 6 or more miles (10+ km)
Ceiling: at least 12,000 feet AGL
Clouds: scattered clouds at 4000 feet AGL
scattered clouds at 25000 feet AGL
Weather: VCTS  (thunderstorm in vicinity)
Text: FM170300 22003KT P6SM VCSH FEW080 FEW250
Forecast period: 0300 to 1200 UTC 17 August 2022
Forecast type: FROM: standard forecast or significant change
Winds: from the SW (220 degrees) at 3 MPH (3 knots; 1.5 m/s)
Visibility: 6 or more miles (10+ km)
Ceiling: at least 12,000 feet AGL
Clouds: few clouds at 8000 feet AGL
few clouds at 25000 feet AGL
Weather: VCSH  (showers in vicinity)